Time,TemperatureF,DewpointF,PressureIn,WindDirection,WindDirectionDegrees,WindSpeedMPH,WindSpeedGustMPH,Humidity,HourlyPrecipIn,Conditions,Clouds,dailyrainin,SoftwareType,DateUTC
2013-04-21 00:01:00,52.1,46.1,30.27,NNE,30,2.0,4.0,80,0.00,,SKC,1.41,VWS V13.00,2013-04-21 04:01:00,
2013-04-21 00:06:00,51.9,45.9,30.27,NNE,16,2.0,6.0,80,0.00,,SKC,0.00,VWS V13.00,2013-04-21 04:06:00,
2013-04-21 00:11:00,51.8,45.8,30.27,NNE,20,6.0,6.0,80,0.00,,SKC,0.00,VWS V13.00,2013-04-21 04:11:00,
2013-04-21 00:16:00,51.6,45.6,30.27,North,355,0.0,5.0,80,0.00,,SKC,0.00,VWS V13.00,2013-04-21 04:16:00,
2013-04-21 00:21:00,51.4,45.5,30.27,North,355,2.0,5.0,80,0.00,,SKC,0.00,VWS V13.00,2013-04-21 04:21:00,
2013-04-21 00:26:00,51.2,45.2,30.27,NNE,20,3.0,5.0,80,0.00,,SKC,0.00,VWS V13.00,2013-04-21 04:26:00,
2013-04-21 00:31:00,51.0,45.1,30.28,NNE,13,2.0,6.0,80,0.00,,SKC,0.00,VWS V13.00,2013-04-21 04:31:00,
2013-04-21 00:36:00,50.9,45.0,30.28,NNE,22,0.0,5.0,80,0.00,,SKC,0.00,VWS V13.00,2013-04-21 04:36:00,
2013-04-21 00:41:00,50.7,44.8,30.27,North,11,3.0,6.0,80,0.00,,SKC,0.00,VWS V13.00,2013-04-21 04:41:00,
2013-04-21 00:46:00,50.5,44.6,30.27,NNE,19,3.0,6.0,80,0.00,,SKC,0.00,VWS V13.00,2013-04-21 04:46:00,
2013-04-21 00:51:00,50.4,44.5,30.27,North,355,2.0,6.0,80,0.00,,SKC,0.00,VWS V13.00,2013-04-21 04:51:00,
2013-04-21 00:56:00,50.2,44.3,30.27,North,5,1.0,6.0,80,0.00,,SKC,0.00,VWS V13.00,2013-04-21 04:56:00,
2013-04-21 01:01:00,50.1,44.2,30.27,NE,35,0.0,6.0,80,0.00,,SKC,0.00,VWS V13.00,2013-04-21 05:01:00,
2013-04-21 01:06:00,50.1,44.2,30.27,NNE,19,2.0,5.0,80,0.00,,SKC,0.00,VWS V13.00,2013-04-21 05:06:00,
2013-04-21 01:11:00,50.0,44.1,30.27,North,5,4.0,6.0,80,0.00,,SKC,0.00,VWS V13.00,2013-04-21 05:11:00,
2013-04-21 01:16:00,50.0,44.1,30.27,NNE,17,3.0,5.0,80,0.00,,SKC,0.00,VWS V13.00,2013-04-21 05:16:00,
2013-04-21 01:21:00,50.0,44.1,30.28,NNE,25,6.0,6.0,80,0.00,,SKC,0.00,VWS V13.00,2013-04-21 05:21:00,
2013-04-21 01:26:00,50.1,44.2,30.28,NNE,14,5.0,7.0,80,0.00,,SKC,0.00,VWS V13.00,2013-04-21 05:26:00,
2013-04-21 01:31:00,50.1,44.2,30.28,NNE,14,0.0,5.0,80,0.00,,SKC,0.00,VWS V13.00,2013-04-21 05:31:00,
2013-04-21 01:36:00,50.1,44.2,30.28,NNW,340,3.0,4.0,80,0.00,,SKC,0.00,VWS V13.00,2013-04-21 05:36:00,
2013-04-21 01:41:00,50.0,44.1,30.28,NE,37,1.0,6.0,80,0.00,,SKC,0.00,VWS V13.00,2013-04-21 05:41:00,
2013-04-21 01:46:00,49.8,43.9,30.28,NNE,26,4.0,8.0,80,0.00,,SKC,0.00,VWS V13.00,2013-04-21 05:46:00,
2013-04-21 01:51:00,49.7,43.8,30.28,NNE,17,3.0,7.0,80,0.00,,SKC,0.00,VWS V13.00,2013-04-21 05:51:00,
2013-04-21 01:56:00,49.6,43.7,30.28,ENE,73,2.0,5.0,80,0.00,,SKC,0.00,VWS V13.00,2013-04-21 05:56:00,
2013-04-21 02:01:00,49.5,43.6,30.28,NNE,22,2.0,5.0,80,0.00,,SKC,0.00,VWS V13.00,2013-04-21 06:01:00,
2013-04-21 02:06:00,49.5,43.6,30.28,NNE,27,0.0,5.0,80,0.00,,SKC,0.00,VWS V13.00,2013-04-21 06:06:00,
2013-04-21 02:11:00,49.5,43.9,30.28,NNE,14,3.0,5.0,81,0.00,,SKC,0.00,VWS V13.00,2013-04-21 06:11:00,
2013-04-21 02:16:00,49.5,43.6,30.28,North,11,2.0,5.0,80,0.00,,SKC,0.00,VWS V13.00,2013-04-21 06:16:00,
2013-04-21 02:21:00,49.4,43.5,30.28,North,5,1.0,5.0,80,0.00,,SKC,0.00,VWS V13.00,2013-04-21 06:21:00,
2013-04-21 02:26:00,49.3,43.7,30.28,North,5,3.0,6.0,81,0.00,,SKC,0.00,VWS V13.00,2013-04-21 06:26:00,
2013-04-21 02:31:00,49.2,43.6,30.28,NNE,30,1.0,5.0,81,0.00,,SKC,0.00,VWS V13.00,2013-04-21 06:31:00,
2013-04-21 02:36:00,49.1,43.5,30.28,North,355,4.0,4.0,81,0.00,,SKC,0.00,VWS V13.00,2013-04-21 06:36:00,
2013-04-21 02:41:00,49.0,43.4,30.28,NNE,21,0.0,3.0,81,0.00,,SKC,0.00,VWS V13.00,2013-04-21 06:41:00,
2013-04-21 02:46:00,48.8,43.2,30.28,ENE,58,1.0,5.0,81,0.00,,SKC,0.00,VWS V13.00,2013-04-21 06:46:00,
2013-04-21 02:51:00,48.6,43.0,30.28,NNE,32,0.0,3.0,81,0.00,,SKC,0.00,VWS V13.00,2013-04-21 06:51:00,
2013-04-21 02:56:00,48.4,42.8,30.29,North,9,1.0,3.0,81,0.00,,SKC,0.00,VWS V13.00,2013-04-21 06:56:00,
2013-04-21 03:01:00,48.3,42.8,30.29,NNE,32,0.0,4.0,81,0.00,,SKC,0.00,VWS V13.00,2013-04-21 07:01:00,
2013-04-21 03:06:00,48.2,42.7,30.29,NE,42,2.0,4.0,81,0.00,,SKC,0.00,VWS V13.00,2013-04-21 07:06:00,
2013-04-21 03:11:00,48.1,42.5,30.29,NE,42,1.0,3.0,81,0.00,,SKC,0.00,VWS V13.00,2013-04-21 07:11:00,
2013-04-21 03:16:00,48.0,42.5,30.29,NE,42,3.0,3.0,81,0.00,,SKC,0.00,VWS V13.00,2013-04-21 07:16:00,
2013-04-21 03:21:00,47.9,42.4,30.29,NE,38,3.0,4.0,81,0.00,,SKC,0.00,VWS V13.00,2013-04-21 07:21:00,
2013-04-21 03:26:00,48.0,42.5,30.29,NE,46,0.0,3.0,81,0.00,,SKC,0.00,VWS V13.00,2013-04-21 07:26:00,
2013-04-21 03:31:00,48.0,42.5,30.29,NE,38,3.0,5.0,81,0.00,,SKC,0.00,VWS V13.00,2013-04-21 07:31:00,
2013-04-21 03:36:00,48.1,42.5,30.29,NNE,17,3.0,4.0,81,0.00,,SKC,0.00,VWS V13.00,2013-04-21 07:36:00,
2013-04-21 03:41:00,48.1,42.5,30.29,North,9,5.0,7.0,81,0.00,,SKC,0.00,VWS V13.00,2013-04-21 07:41:00,
2013-04-21 03:46:00,48.2,42.7,30.29,North,5,3.0,6.0,81,0.00,,SKC,0.00,VWS V13.00,2013-04-21 07:46:00,
2013-04-21 03:51:00,48.5,43.0,30.29,NNE,28,5.0,7.0,81,0.00,,SKC,0.00,VWS V13.00,2013-04-21 07:51:00,
2013-04-21 03:56:00,48.9,43.3,30.29,NNE,24,2.0,7.0,81,0.00,,SKC,0.00,VWS V13.00,2013-04-21 07:56:00,
2013-04-21 04:01:00,49.1,43.5,30.30,NE,34,3.0,6.0,81,0.00,,SKC,0.00,VWS V13.00,2013-04-21 08:01:00,
2013-04-21 04:06:00,49.2,43.6,30.30,NNE,16,0.0,5.0,81,0.00,,SKC,0.00,VWS V13.00,2013-04-21 08:06:00,
2013-04-21 04:11:00,49.2,43.6,30.30,NNE,19,3.0,6.0,81,0.00,,SKC,0.00,VWS V13.00,2013-04-21 08:11:00,
2013-04-21 04:16:00,49.3,43.7,30.30,NNE,19,2.0,5.0,81,0.00,,SKC,0.00,VWS V13.00,2013-04-21 08:16:00,
2013-04-21 04:21:00,49.2,43.6,30.31,North,360,2.0,5.0,81,0.00,,SKC,0.00,VWS V13.00,2013-04-21 08:21:00,
2013-04-21 04:26:00,49.2,43.6,30.31,North,9,3.0,4.0,81,0.00,,SKC,0.00,VWS V13.00,2013-04-21 08:26:00,
2013-04-21 04:31:00,49.0,43.4,30.31,NE,37,1.0,4.0,81,0.00,,SKC,0.00,VWS V13.00,2013-04-21 08:31:00,
2013-04-21 04:36:00,48.8,43.2,30.30,NNE,25,0.0,5.0,81,0.00,,SKC,0.00,VWS V13.00,2013-04-21 08:36:00,
2013-04-21 04:41:00,48.8,43.2,30.31,NNE,29,0.0,5.0,81,0.00,,SKC,0.00,VWS V13.00,2013-04-21 08:41:00,
2013-04-21 04:46:00,48.7,43.1,30.31,NNE,29,1.0,4.0,81,0.00,,SKC,0.00,VWS V13.00,2013-04-21 08:46:00,
2013-04-21 04:51:00,48.6,43.4,30.31,North,10,2.0,3.0,82,0.00,,SKC,0.00,VWS V13.00,2013-04-21 08:51:00,
2013-04-21 04:56:00,48.5,43.3,30.31,NNE,12,1.0,4.0,82,0.00,,SKC,0.00,VWS V13.00,2013-04-21 08:56:00,
2013-04-21 05:01:00,48.5,43.3,30.31,NNE,16,2.0,5.0,82,0.00,,SKC,0.00,VWS V13.00,2013-04-21 09:01:00,
2013-04-21 05:06:00,48.4,43.2,30.31,NE,45,2.0,5.0,82,0.00,,SKC,0.00,VWS V13.00,2013-04-21 09:06:00,
2013-04-21 05:11:00,48.3,42.8,30.31,North,9,0.0,4.0,81,0.00,,SKC,0.00,VWS V13.00,2013-04-21 09:11:00,
2013-04-21 05:16:00,48.2,43.0,30.31,North,5,2.0,4.0,82,0.00,,SKC,0.00,VWS V13.00,2013-04-21 09:16:00,
2013-04-21 05:21:00,48.1,42.9,30.31,NNE,21,0.0,5.0,82,0.00,,SKC,0.00,VWS V13.00,2013-04-21 09:21:00,
2013-04-21 05:26:00,47.9,42.7,30.32,NNE,24,2.0,5.0,82,0.00,,SKC,0.00,VWS V13.00,2013-04-21 09:26:00,
2013-04-21 05:31:00,47.8,42.6,30.32,NNE,17,5.0,5.0,82,0.00,,SKC,0.00,VWS V13.00,2013-04-21 09:31:00,
2013-04-21 05:36:00,47.8,42.6,30.32,NE,43,4.0,5.0,82,0.00,,SKC,0.00,VWS V13.00,2013-04-21 09:36:00,
2013-04-21 05:41:00,47.9,42.7,30.32,NNE,24,3.0,6.0,82,0.00,,SKC,0.00,VWS V13.00,2013-04-21 09:41:00,
2013-04-21 05:46:00,48.1,42.9,30.32,NNE,15,1.0,7.0,82,0.00,,SKC,0.00,VWS V13.00,2013-04-21 09:46:00,
2013-04-21 05:51:00,48.1,42.9,30.33,NE,43,3.0,5.0,82,0.00,,SKC,0.00,VWS V13.00,2013-04-21 09:51:00,
2013-04-21 05:56:00,48.1,42.9,30.33,ENE,71,2.0,7.0,82,0.00,,SKC,0.00,VWS V13.00,2013-04-21 09:56:00,
2013-04-21 06:00:00,48.2,43.0,30.33,NE,44,1.0,6.0,82,0.00,,SKC,0.00,VWS V13.00,2013-04-21 10:00:00,
2013-04-21 06:06:00,48.3,43.1,30.33,North,360,5.0,6.0,82,0.00,,SKC,0.00,VWS V13.00,2013-04-21 10:06:00,
2013-04-21 06:10:00,48.3,43.1,30.33,North,5,3.0,6.0,82,0.00,,SKC,0.00,VWS V13.00,2013-04-21 10:10:00,
2013-04-21 06:15:00,48.3,43.1,30.34,NE,36,2.0,5.0,82,0.00,,SKC,0.00,VWS V13.00,2013-04-21 10:15:00,
2013-04-21 06:20:00,48.3,43.1,30.34,North,5,3.0,5.0,82,0.00,,SKC,0.00,VWS V13.00,2013-04-21 10:20:00,
2013-04-21 06:25:00,48.2,43.0,30.34,NE,49,0.0,6.0,82,0.00,,SKC,0.00,VWS V13.00,2013-04-21 10:25:00,
2013-04-21 06:30:00,48.1,42.9,30.35,NNE,29,1.0,6.0,82,0.00,,SKC,0.00,VWS V13.00,2013-04-21 10:30:00,
2013-04-21 06:35:00,48.0,42.8,30.35,NNE,31,2.0,6.0,82,0.00,,SKC,0.00,VWS V13.00,2013-04-21 10:35:00,
2013-04-21 06:40:00,47.9,42.7,30.35,NNE,28,4.0,6.0,82,0.00,,SKC,0.00,VWS V13.00,2013-04-21 10:40:00,
2013-04-21 06:45:00,48.1,42.9,30.35,NNE,28,1.0,7.0,82,0.00,,SKC,0.00,VWS V13.00,2013-04-21 10:45:00,
2013-04-21 06:50:00,48.1,42.9,30.36,North,5,1.0,7.0,82,0.00,,SKC,0.00,VWS V13.00,2013-04-21 10:50:00,
2013-04-21 06:55:00,48.2,43.0,30.36,NNE,29,3.0,8.0,82,0.00,,SKC,0.00,VWS V13.00,2013-04-21 10:55:00,
2013-04-21 07:00:00,48.4,43.2,30.36,NNE,19,5.0,8.0,82,0.00,,SKC,0.00,VWS V13.00,2013-04-21 11:00:00,
2013-04-21 07:05:00,48.6,43.4,30.36,North,5,4.0,6.0,82,0.00,,SKC,0.00,VWS V13.00,2013-04-21 11:05:00,
2013-04-21 07:10:00,48.7,43.5,30.37,NNE,26,3.0,8.0,82,0.00,,SKC,0.00,VWS V13.00,2013-04-21 11:10:00,
2013-04-21 07:15:00,48.9,43.7,30.37,North,5,1.0,7.0,82,0.00,,SKC,0.00,VWS V13.00,2013-04-21 11:15:00,
2013-04-21 07:20:00,49.0,43.8,30.37,NNW,340,1.0,7.0,82,0.00,,SKC,0.00,VWS V13.00,2013-04-21 11:20:00,
2013-04-21 07:25:00,49.2,44.0,30.37,NNE,12,4.0,7.0,82,0.00,,SKC,0.00,VWS V13.00,2013-04-21 11:25:00,
2013-04-21 07:30:00,49.3,44.0,30.38,NNE,12,2.0,7.0,82,0.00,,SKC,0.00,VWS V13.00,2013-04-21 11:30:00,
2013-04-21 07:35:00,49.6,44.3,30.38,North,5,1.0,6.0,82,0.00,,SKC,0.00,VWS V13.00,2013-04-21 11:35:00,
2013-04-21 07:40:00,49.8,44.5,30.38,NNE,22,7.0,11.0,82,0.00,,SKC,0.00,VWS V13.00,2013-04-21 11:40:00,
2013-04-21 07:45:00,50.0,44.7,30.38,NE,36,10.0,12.0,82,0.00,,SKC,0.00,VWS V13.00,2013-04-21 11:45:00,
2013-04-21 07:50:00,50.3,45.0,30.38,NNW,340,6.0,11.0,82,0.00,,SKC,0.00,VWS V13.00,2013-04-21 11:50:00,
2013-04-21 07:55:00,50.6,45.0,30.39,NE,44,3.0,10.0,81,0.00,,SKC,0.00,VWS V13.00,2013-04-21 11:55:00,
2013-04-21 08:00:00,50.9,45.6,30.39,North,5,4.0,10.0,82,0.00,,SKC,0.00,VWS V13.00,2013-04-21 12:00:00,
2013-04-21 08:05:00,51.2,45.6,30.39,NNW,338,4.0,10.0,81,0.00,,SKC,0.00,VWS V13.00,2013-04-21 12:05:00,
2013-04-21 08:10:00,51.5,45.9,30.39,North,5,5.0,10.0,81,0.00,,SKC,0.00,VWS V13.00,2013-04-21 12:10:00,
2013-04-21 08:15:00,51.8,46.2,30.39,North,360,8.0,14.0,81,0.00,,SKC,0.00,VWS V13.00,2013-04-21 12:15:00,
2013-04-21 08:20:00,52.2,46.5,30.39,ENE,74,5.0,11.0,81,0.00,,SKC,0.00,VWS V13.00,2013-04-21 12:20:00,
2013-04-21 08:25:00,52.4,46.8,30.39,NNE,32,7.0,11.0,81,0.00,,SKC,0.00,VWS V13.00,2013-04-21 12:25:00,
2013-04-21 08:30:00,52.8,47.1,30.40,East,101,5.0,13.0,81,0.00,,SKC,0.00,VWS V13.00,2013-04-21 12:30:00,
2013-04-21 08:35:00,53.1,47.4,30.40,North,355,5.0,11.0,81,0.00,,SKC,0.00,VWS V13.00,2013-04-21 12:35:00,
2013-04-21 08:40:00,53.5,47.8,30.40,ENE,68,11.0,12.0,81,0.00,,SKC,0.00,VWS V13.00,2013-04-21 12:40:00,
2013-04-21 08:45:00,53.8,47.8,30.40,NE,36,7.0,17.0,80,0.00,,SKC,0.00,VWS V13.00,2013-04-21 12:45:00,
2013-04-21 08:50:00,54.1,48.1,30.40,NNE,32,6.0,14.0,80,0.00,,SKC,0.00,VWS V13.00,2013-04-21 12:50:00,
2013-04-21 08:55:00,54.4,48.4,30.40,North,5,7.0,15.0,80,0.00,,SKC,0.00,VWS V13.00,2013-04-21 12:55:00,
2013-04-21 09:00:00,54.8,48.8,30.40,NNE,18,7.0,20.0,80,0.00,,SKC,0.00,VWS V13.00,2013-04-21 13:00:00,
2013-04-21 09:05:00,55.1,49.0,30.40,ESE,119,8.0,18.0,80,0.00,,SKC,0.00,VWS V13.00,2013-04-21 13:05:00,
2013-04-21 09:10:00,55.6,49.5,30.40,ENE,74,14.0,15.0,80,0.00,,SKC,0.00,VWS V13.00,2013-04-21 13:10:00,
2013-04-21 09:15:00,55.9,49.5,30.40,NE,53,19.0,19.0,79,0.00,,SKC,0.00,VWS V13.00,2013-04-21 13:15:00,
2013-04-21 09:20:00,56.2,49.8,30.40,ENE,72,6.0,17.0,79,0.00,,SKC,0.00,VWS V13.00,2013-04-21 13:20:00,
2013-04-21 09:25:00,56.7,50.3,30.40,NE,48,14.0,19.0,79,0.00,,SKC,0.00,VWS V13.00,2013-04-21 13:25:00,
2013-04-21 09:30:00,57.1,50.7,30.41,ENE,57,13.0,19.0,79,0.00,,SKC,0.00,VWS V13.00,2013-04-21 13:30:00,
2013-04-21 09:35:00,57.5,51.0,30.40,East,85,11.0,21.0,79,0.00,,SKC,0.00,VWS V13.00,2013-04-21 13:35:00,
2013-04-21 09:40:00,57.7,51.2,30.41,NE,44,8.0,22.0,79,0.00,,SKC,0.00,VWS V13.00,2013-04-21 13:40:00,
2013-04-21 09:45:00,57.8,51.3,30.41,ENE,71,8.0,20.0,79,0.00,,SKC,0.00,VWS V13.00,2013-04-21 13:45:00,
2013-04-21 09:50:00,58.2,51.4,30.42,NE,55,6.0,19.0,78,0.00,,SKC,0.00,VWS V13.00,2013-04-21 13:50:00,
2013-04-21 09:55:00,58.5,51.7,30.42,NE,53,8.0,17.0,78,0.00,,SKC,0.00,VWS V13.00,2013-04-21 13:55:00,
2013-04-21 10:00:00,58.9,52.1,30.42,NE,50,12.0,22.0,78,0.00,,SKC,0.00,VWS V13.00,2013-04-21 14:00:00,
2013-04-21 10:05:00,59.0,52.2,30.42,ENE,69,4.0,23.0,78,0.00,,SKC,0.00,VWS V13.00,2013-04-21 14:05:00,
2013-04-21 10:10:00,59.0,52.2,30.42,NE,49,13.0,17.0,78,0.00,,SKC,0.00,VWS V13.00,2013-04-21 14:10:00,
2013-04-21 10:15:00,59.3,52.5,30.42,NE,38,11.0,21.0,78,0.00,,SKC,0.00,VWS V13.00,2013-04-21 14:15:00,
2013-04-21 10:20:00,59.3,52.1,30.42,ENE,70,5.0,21.0,77,0.00,,SKC,0.00,VWS V13.00,2013-04-21 14:20:00,
2013-04-21 10:25:00,59.1,51.9,30.43,North,10,9.0,18.0,77,0.00,,SKC,0.00,VWS V13.00,2013-04-21 14:25:00,
2013-04-21 10:30:00,59.0,51.8,30.43,NNE,15,4.0,21.0,77,0.00,,SKC,0.00,VWS V13.00,2013-04-21 14:30:00,
2013-04-21 10:35:00,59.0,51.8,30.43,North,350,6.0,20.0,77,0.00,,SKC,0.00,VWS V13.00,2013-04-21 14:35:00,
2013-04-21 10:40:00,59.0,51.8,30.43,NNE,22,5.0,20.0,77,0.00,,SKC,0.00,VWS V13.00,2013-04-21 14:40:00,
2013-04-21 10:45:00,59.4,52.2,30.43,NNE,24,16.0,16.0,77,0.00,,SKC,0.00,VWS V13.00,2013-04-21 14:45:00,
2013-04-21 10:50:00,59.5,52.3,30.44,NNE,32,12.0,19.0,77,0.00,,SKC,0.00,VWS V13.00,2013-04-21 14:50:00,
2013-04-21 10:55:00,59.9,52.7,30.44,ENE,63,6.0,18.0,77,0.00,,SKC,0.00,VWS V13.00,2013-04-21 14:55:00,
2013-04-21 11:00:00,60.2,52.6,30.44,ENE,70,11.0,19.0,76,0.00,,SKC,0.00,VWS V13.00,2013-04-21 15:00:00,
2013-04-21 11:05:00,60.2,52.6,30.45,ENE,66,10.0,19.0,76,0.00,,SKC,0.00,VWS V13.00,2013-04-21 15:05:00,
2013-04-21 11:10:00,60.5,52.9,30.44,ENE,59,10.0,20.0,76,0.00,,SKC,0.00,VWS V13.00,2013-04-21 15:10:00,
2013-04-21 11:15:00,60.3,52.3,30.44,NNE,19,3.0,20.0,75,0.00,,SKC,0.00,VWS V13.00,2013-04-21 15:15:00,
2013-04-21 11:20:00,60.4,52.5,30.44,ENE,67,21.0,21.0,75,0.00,,SKC,0.00,VWS V13.00,2013-04-21 15:20:00,
2013-04-21 11:25:00,60.7,52.4,30.44,NE,52,14.0,21.0,74,0.00,,SKC,0.00,VWS V13.00,2013-04-21 15:25:00,
2013-04-21 11:30:00,60.8,52.5,30.45,East,80,8.0,29.0,74,0.00,,SKC,0.00,VWS V13.00,2013-04-21 15:30:00,
2013-04-21 11:35:00,61.2,52.9,30.45,ENE,71,14.0,23.0,74,0.00,,SKC,0.00,VWS V13.00,2013-04-21 15:35:00,
2013-04-21 11:40:00,61.4,53.0,30.45,NNE,21,12.0,15.0,74,0.00,,SKC,0.00,VWS V13.00,2013-04-21 15:40:00,
2013-04-21 11:45:00,61.9,53.5,30.45,NNE,17,9.0,21.0,74,0.00,,SKC,0.00,VWS V13.00,2013-04-21 15:45:00,
2013-04-21 11:50:00,61.8,53.1,30.44,ENE,64,5.0,23.0,73,0.00,,SKC,0.00,VWS V13.00,2013-04-21 15:50:00,
2013-04-21 11:55:00,61.6,53.2,30.44,ENE,61,12.0,21.0,74,0.00,,SKC,0.00,VWS V13.00,2013-04-21 15:55:00,
2013-04-21 12:00:00,61.6,52.9,30.44,ENE,78,7.0,25.0,73,0.00,,SKC,0.00,VWS V13.00,2013-04-21 16:00:00,
2013-04-21 12:05:00,61.6,52.9,30.44,NE,52,19.0,28.0,73,0.00,,SKC,0.00,VWS V13.00,2013-04-21 16:05:00,
2013-04-21 12:10:00,61.3,52.6,30.44,NE,40,16.0,24.0,73,0.00,,SKC,0.00,VWS V13.00,2013-04-21 16:10:00,
2013-04-21 12:15:00,61.3,52.6,30.44,NE,54,6.0,18.0,73,0.00,,SKC,0.00,VWS V13.00,2013-04-21 16:15:00,
2013-04-21 12:20:00,61.7,53.0,30.44,NE,51,11.0,19.0,73,0.00,,SKC,0.00,VWS V13.00,2013-04-21 16:20:00,
2013-04-21 12:25:00,61.6,52.5,30.44,NE,54,12.0,21.0,72,0.00,,SKC,0.00,VWS V13.00,2013-04-21 16:25:00,
2013-04-21 12:30:00,61.7,52.6,30.44,East,80,15.0,23.0,72,0.00,,SKC,0.00,VWS V13.00,2013-04-21 16:30:00,
2013-04-21 12:35:00,61.9,52.8,30.44,NNE,22,13.0,24.0,72,0.00,,SKC,0.00,VWS V13.00,2013-04-21 16:35:00,
2013-04-21 12:40:00,62.1,53.0,30.44,ENE,67,6.0,21.0,72,0.00,,SKC,0.00,VWS V13.00,2013-04-21 16:40:00,
2013-04-21 12:45:00,62.2,53.1,30.44,NE,53,10.0,20.0,72,0.00,,SKC,0.00,VWS V13.00,2013-04-21 16:45:00,
2013-04-21 12:50:00,62.0,52.5,30.44,NE,48,8.0,17.0,71,0.00,,SKC,0.00,VWS V13.00,2013-04-21 16:50:00,
2013-04-21 12:55:00,62.1,52.6,30.44,East,82,18.0,22.0,71,0.00,,SKC,0.00,VWS V13.00,2013-04-21 16:55:00,
2013-04-21 13:00:00,62.2,52.7,30.44,ENE,76,17.0,25.0,71,0.00,,SKC,0.00,VWS V13.00,2013-04-21 17:00:00,
2013-04-21 13:05:00,62.4,52.9,30.44,ENE,70,14.0,23.0,71,0.00,,SKC,0.00,VWS V13.00,2013-04-21 17:05:00,
2013-04-21 13:10:00,62.5,53.0,30.44,NE,44,5.0,25.0,71,0.00,,SKC,0.00,VWS V13.00,2013-04-21 17:10:00,
2013-04-21 13:15:00,62.4,52.5,30.44,East,84,4.0,20.0,70,0.00,,SKC,0.00,VWS V13.00,2013-04-21 17:15:00,
2013-04-21 13:20:00,62.2,52.3,30.45,East,85,5.0,19.0,70,0.00,,SKC,0.00,VWS V13.00,2013-04-21 17:20:00,
2013-04-21 13:25:00,62.2,52.3,30.44,ENE,69,10.0,22.0,70,0.00,,SKC,0.00,VWS V13.00,2013-04-21 17:25:00,
2013-04-21 13:30:00,62.0,51.7,30.45,NE,36,19.0,27.0,69,0.00,,SKC,0.00,VWS V13.00,2013-04-21 17:30:00,
2013-04-21 13:35:00,62.0,52.1,30.44,East,83,10.0,23.0,70,0.00,,SKC,0.00,VWS V13.00,2013-04-21 17:35:00,
2013-04-21 13:40:00,62.0,52.1,30.44,NE,51,8.0,24.0,70,0.00,,SKC,0.00,VWS V13.00,2013-04-21 17:40:00,
2013-04-21 13:45:00,62.1,52.2,30.45,East,94,13.0,21.0,70,0.00,,SKC,0.00,VWS V13.00,2013-04-21 17:45:00,
2013-04-21 13:50:00,62.2,52.3,30.45,NE,52,7.0,21.0,70,0.00,,SKC,0.00,VWS V13.00,2013-04-21 17:50:00,
2013-04-21 13:55:00,62.4,52.1,30.45,ESE,106,11.0,21.0,69,0.00,,SKC,0.00,VWS V13.00,2013-04-21 17:55:00,
2013-04-21 14:00:00,62.3,51.6,30.45,ESE,105,5.0,23.0,68,0.00,,SKC,0.00,VWS V13.00,2013-04-21 18:00:00,
2013-04-21 14:05:00,62.2,51.5,30.45,NE,36,8.0,21.0,68,0.00,,SKC,0.00,VWS V13.00,2013-04-21 18:05:00,
2013-04-21 14:11:00,62.2,51.5,30.45,ENE,63,19.0,22.0,68,0.00,,SKC,0.00,VWS V13.00,2013-04-21 18:11:00,
2013-04-21 14:16:00,62.0,51.3,30.45,ENE,68,6.0,23.0,68,0.00,,SKC,0.00,VWS V13.00,2013-04-21 18:16:00,
2013-04-21 14:21:00,62.2,51.9,30.44,East,89,11.0,23.0,69,0.00,,SKC,0.00,VWS V13.00,2013-04-21 18:21:00,
2013-04-21 14:26:00,62.4,52.1,30.44,NNE,17,9.0,22.0,69,0.00,,SKC,0.00,VWS V13.00,2013-04-21 18:26:00,
2013-04-21 14:31:00,62.3,51.6,30.44,NE,56,5.0,16.0,68,0.00,,SKC,0.00,VWS V13.00,2013-04-21 18:31:00,
2013-04-21 14:36:00,62.3,51.6,30.44,ENE,78,10.0,17.0,68,0.00,,SKC,0.00,VWS V13.00,2013-04-21 18:36:00,
2013-04-21 14:41:00,62.4,51.7,30.45,East,88,12.0,19.0,68,0.00,,SKC,0.00,VWS V13.00,2013-04-21 18:41:00,
2013-04-21 14:46:00,62.4,51.7,30.44,NE,45,7.0,23.0,68,0.00,,SKC,0.00,VWS V13.00,2013-04-21 18:46:00,
2013-04-21 14:51:00,62.5,51.4,30.44,ENE,69,5.0,23.0,67,0.00,,SKC,0.00,VWS V13.00,2013-04-21 18:51:00,
2013-04-21 14:56:00,62.1,51.4,30.44,NNE,19,8.0,23.0,68,0.00,,SKC,0.00,VWS V13.00,2013-04-21 18:56:00,
2013-04-21 15:01:00,62.2,51.1,30.44,NE,46,5.0,23.0,67,0.00,,SKC,0.00,VWS V13.00,2013-04-21 19:01:00,
2013-04-21 15:06:00,62.2,51.1,30.44,East,95,8.0,18.0,67,0.00,,SKC,0.00,VWS V13.00,2013-04-21 19:06:00,
2013-04-21 15:11:00,62.1,51.0,30.44,NE,51,8.0,30.0,67,0.00,,SKC,0.00,VWS V13.00,2013-04-21 19:11:00,
2013-04-21 15:16:00,62.0,51.3,30.43,NNE,20,8.0,21.0,68,0.00,,SKC,0.00,VWS V13.00,2013-04-21 19:16:00,
2013-04-21 15:21:00,62.1,51.0,30.44,NE,55,19.0,24.0,67,0.00,,SKC,0.00,VWS V13.00,2013-04-21 19:21:00,
2013-04-21 15:26:00,62.0,50.5,30.44,ENE,73,12.0,24.0,66,0.00,,SKC,0.00,VWS V13.00,2013-04-21 19:26:00,
2013-04-21 15:31:00,61.8,50.7,30.43,East,80,6.0,27.0,67,0.00,,SKC,0.00,VWS V13.00,2013-04-21 19:31:00,
2013-04-21 15:36:00,62.0,50.9,30.43,East,96,14.0,21.0,67,0.00,,SKC,0.00,VWS V13.00,2013-04-21 19:36:00,
2013-04-21 15:41:00,62.0,50.9,30.43,East,90,6.0,22.0,67,0.00,,SKC,0.00,VWS V13.00,2013-04-21 19:41:00,
2013-04-21 15:46:00,61.9,50.8,30.43,NNW,339,7.0,21.0,67,0.00,,SKC,0.00,VWS V13.00,2013-04-21 19:46:00,
2013-04-21 15:51:00,61.5,50.0,30.43,NE,52,11.0,25.0,66,0.00,,SKC,0.00,VWS V13.00,2013-04-21 19:51:00,
2013-04-21 15:56:00,61.1,49.7,30.44,NE,54,5.0,23.0,66,0.00,,SKC,0.00,VWS V13.00,2013-04-21 19:56:00,
2013-04-21 16:01:00,61.2,50.2,30.43,ENE,72,12.0,20.0,67,0.00,,SKC,0.00,VWS V13.00,2013-04-21 20:01:00,
2013-04-21 16:06:00,61.5,50.0,30.43,NE,34,16.0,21.0,66,0.00,,SKC,0.00,VWS V13.00,2013-04-21 20:06:00,
2013-04-21 16:11:00,61.2,49.8,30.43,NE,54,7.0,21.0,66,0.00,,SKC,0.00,VWS V13.00,2013-04-21 20:11:00,
2013-04-21 16:16:00,61.0,49.6,30.43,ENE,66,18.0,20.0,66,0.00,,SKC,0.00,VWS V13.00,2013-04-21 20:16:00,
2013-04-21 16:21:00,61.0,50.0,30.43,ENE,65,8.0,25.0,67,0.00,,SKC,0.00,VWS V13.00,2013-04-21 20:21:00,
2013-04-21 16:26:00,60.9,49.5,30.42,East,96,19.0,23.0,66,0.00,,SKC,0.00,VWS V13.00,2013-04-21 20:26:00,
2013-04-21 16:31:00,60.7,49.3,30.42,ENE,65,10.0,22.0,66,0.00,,SKC,0.00,VWS V13.00,2013-04-21 20:31:00,
2013-04-21 16:36:00,60.4,49.0,30.42,ENE,76,6.0,21.0,66,0.00,,SKC,0.00,VWS V13.00,2013-04-21 20:36:00,
2013-04-21 16:41:00,60.3,48.9,30.42,ENE,68,12.0,22.0,66,0.00,,SKC,0.00,VWS V13.00,2013-04-21 20:41:00,
2013-04-21 16:46:00,60.2,48.8,30.42,ENE,61,2.0,19.0,66,0.00,,SKC,0.00,VWS V13.00,2013-04-21 20:46:00,
2013-04-21 16:51:00,60.2,48.8,30.42,NE,55,11.0,21.0,66,0.00,,SKC,0.00,VWS V13.00,2013-04-21 20:51:00,
2013-04-21 16:56:00,59.9,48.5,30.42,ENE,66,10.0,23.0,66,0.00,,SKC,0.00,VWS V13.00,2013-04-21 20:56:00,
2013-04-21 17:01:00,59.7,48.3,30.41,ENE,76,7.0,21.0,66,0.00,,SKC,0.00,VWS V13.00,2013-04-21 21:01:00,
2013-04-21 17:06:00,59.6,48.2,30.41,East,93,13.0,22.0,66,0.00,,SKC,0.00,VWS V13.00,2013-04-21 21:06:00,
2013-04-21 17:11:00,59.6,48.2,30.41,NNE,24,16.0,19.0,66,0.00,,SKC,0.00,VWS V13.00,2013-04-21 21:11:00,
2013-04-21 17:16:00,59.3,47.5,30.41,NE,36,9.0,22.0,65,0.00,,SKC,0.00,VWS V13.00,2013-04-21 21:16:00,
2013-04-21 17:21:00,59.0,47.3,30.41,North,5,5.0,19.0,65,0.00,,SKC,0.00,VWS V13.00,2013-04-21 21:21:00,
2013-04-21 17:26:00,58.7,47.4,30.41,NNE,24,7.0,24.0,66,0.00,,SKC,0.00,VWS V13.00,2013-04-21 21:26:00,
2013-04-21 17:31:00,58.6,47.3,30.41,NE,46,11.0,20.0,66,0.00,,SKC,0.00,VWS V13.00,2013-04-21 21:31:00,
2013-04-21 17:36:00,58.5,47.2,30.42,ENE,76,10.0,20.0,66,0.00,,SKC,0.00,VWS V13.00,2013-04-21 21:36:00,
2013-04-21 17:41:00,58.3,46.6,30.42,ENE,78,5.0,19.0,65,0.00,,SKC,0.00,VWS V13.00,2013-04-21 21:41:00,
2013-04-21 17:46:00,57.9,45.8,30.41,North,9,8.0,24.0,64,0.00,,SKC,0.00,VWS V13.00,2013-04-21 21:46:00,
2013-04-21 17:51:00,57.8,46.1,30.41,NE,38,4.0,16.0,65,0.00,,SKC,0.00,VWS V13.00,2013-04-21 21:51:00,
2013-04-21 17:56:00,57.6,45.9,30.41,NE,35,7.0,24.0,65,0.00,,SKC,0.00,VWS V13.00,2013-04-21 21:56:00,
2013-04-21 18:01:00,57.4,45.8,30.41,North,360,7.0,26.0,65,0.00,,SKC,0.00,VWS V13.00,2013-04-21 22:01:00,
2013-04-21 18:06:00,57.2,45.6,30.41,East,84,3.0,22.0,65,0.00,,SKC,0.00,VWS V13.00,2013-04-21 22:06:00,
2013-04-21 18:11:00,57.1,45.5,30.41,NE,51,11.0,19.0,65,0.00,,SKC,0.00,VWS V13.00,2013-04-21 22:11:00,
2013-04-21 18:16:00,57.0,45.4,30.41,NE,38,16.0,21.0,65,0.00,,SKC,0.00,VWS V13.00,2013-04-21 22:16:00,
2013-04-21 18:21:00,56.8,45.2,30.41,NE,42,7.0,20.0,65,0.00,,SKC,0.00,VWS V13.00,2013-04-21 22:21:00,
2013-04-21 18:26:00,56.8,45.6,30.41,NE,54,4.0,19.0,66,0.00,,SKC,0.00,VWS V13.00,2013-04-21 22:26:00,
2013-04-21 18:31:00,56.6,45.4,30.41,NE,49,7.0,19.0,66,0.00,,SKC,0.00,VWS V13.00,2013-04-21 22:31:00,
2013-04-21 18:36:00,56.5,45.3,30.41,ENE,57,7.0,21.0,66,0.00,,SKC,0.00,VWS V13.00,2013-04-21 22:36:00,
2013-04-21 18:41:00,56.2,45.0,30.41,NNE,17,5.0,22.0,66,0.00,,SKC,0.00,VWS V13.00,2013-04-21 22:41:00,
2013-04-21 18:46:00,55.9,44.7,30.42,NNE,28,4.0,20.0,66,0.00,,SKC,0.00,VWS V13.00,2013-04-21 22:46:00,
2013-04-21 18:51:00,55.7,44.5,30.42,NE,50,14.0,22.0,66,0.00,,SKC,0.00,VWS V13.00,2013-04-21 22:51:00,
2013-04-21 18:56:00,55.5,44.3,30.42,ENE,63,5.0,21.0,66,0.00,,SKC,0.00,VWS V13.00,2013-04-21 22:56:00,
2013-04-21 19:01:00,55.3,44.2,30.42,NE,48,13.0,20.0,66,0.00,,SKC,0.00,VWS V13.00,2013-04-21 23:01:00,
2013-04-21 19:06:00,55.2,44.0,30.42,NE,41,5.0,24.0,66,0.00,,SKC,0.00,VWS V13.00,2013-04-21 23:06:00,
2013-04-21 19:11:00,55.0,44.3,30.41,NNE,20,12.0,18.0,67,0.00,,SKC,0.00,VWS V13.00,2013-04-21 23:11:00,
2013-04-21 19:16:00,54.8,43.7,30.41,East,92,4.0,20.0,66,0.00,,SKC,0.00,VWS V13.00,2013-04-21 23:16:00,
2013-04-21 19:21:00,54.6,43.5,30.42,East,89,4.0,21.0,66,0.00,,SKC,0.00,VWS V13.00,2013-04-21 23:21:00,
2013-04-21 19:26:00,54.5,43.4,30.42,ENE,57,16.0,18.0,66,0.00,,SKC,0.00,VWS V13.00,2013-04-21 23:26:00,
2013-04-21 19:31:00,54.3,43.2,30.42,NE,47,5.0,16.0,66,0.00,,SKC,0.00,VWS V13.00,2013-04-21 23:31:00,
2013-04-21 19:36:00,54.1,43.4,30.42,NNE,30,6.0,16.0,67,0.00,,SKC,0.00,VWS V13.00,2013-04-21 23:36:00,
2013-04-21 19:41:00,53.9,43.2,30.42,NNE,22,4.0,20.0,67,0.00,,SKC,0.00,VWS V13.00,2013-04-21 23:41:00,
2013-04-21 19:46:00,53.7,43.0,30.42,NE,56,10.0,22.0,67,0.00,,SKC,0.00,VWS V13.00,2013-04-21 23:46:00,
2013-04-21 19:51:00,53.6,42.9,30.42,ENE,68,4.0,16.0,67,0.00,,SKC,0.00,VWS V13.00,2013-04-21 23:51:00,
2013-04-21 19:56:00,53.4,42.7,30.42,NE,51,8.0,14.0,67,0.00,,SKC,0.00,VWS V13.00,2013-04-21 23:56:00,
2013-04-21 20:01:00,53.2,42.5,30.42,ENE,57,2.0,17.0,67,0.00,,SKC,0.00,VWS V13.00,2013-04-22 00:01:00,
2013-04-21 20:06:00,53.0,42.3,30.42,NNE,23,6.0,18.0,67,0.00,,SKC,0.00,VWS V13.00,2013-04-22 00:06:00,
2013-04-21 20:15:00,52.6,42.3,30.43,NNW,340,5.0,16.0,68,0.00,,SKC,0.00,VWS V13.00,2013-04-22 00:15:00,
2013-04-21 20:20:00,52.3,42.1,30.43,North,5,13.0,13.0,68,0.00,,SKC,0.00,VWS V13.00,2013-04-22 00:20:00,
2013-04-21 20:25:00,52.1,41.9,30.43,NE,38,5.0,12.0,68,0.00,,SKC,0.00,VWS V13.00,2013-04-22 00:25:00,
2013-04-21 20:30:00,51.9,41.7,30.43,North,11,9.0,14.0,68,0.00,,SKC,0.00,VWS V13.00,2013-04-22 00:30:00,
2013-04-21 20:35:00,51.6,41.4,30.43,NW,324,8.0,17.0,68,0.00,,SKC,0.00,VWS V13.00,2013-04-22 00:35:00,
2013-04-21 20:40:00,51.4,41.2,30.44,NNE,14,10.0,16.0,68,0.00,,SKC,0.00,VWS V13.00,2013-04-22 00:40:00,
2013-04-21 20:45:00,51.3,41.1,30.45,NNE,16,5.0,17.0,68,0.00,,SKC,0.00,VWS V13.00,2013-04-22 00:45:00,
2013-04-21 20:50:00,51.1,40.9,30.45,NNE,29,4.0,15.0,68,0.00,,SKC,0.00,VWS V13.00,2013-04-22 00:50:00,
2013-04-21 20:55:00,51.0,40.8,30.46,North,9,3.0,12.0,68,0.00,,SKC,0.00,VWS V13.00,2013-04-22 00:55:00,
2013-04-21 21:00:00,50.8,40.6,30.46,NNW,344,8.0,13.0,68,0.00,,SKC,0.00,VWS V13.00,2013-04-22 01:00:00,
2013-04-21 21:05:00,50.6,40.4,30.46,North,9,10.0,13.0,68,0.00,,SKC,0.00,VWS V13.00,2013-04-22 01:05:00,
2013-04-21 21:10:00,50.5,40.3,30.46,North,5,7.0,11.0,68,0.00,,SKC,0.00,VWS V13.00,2013-04-22 01:10:00,
2013-04-21 21:15:00,50.3,40.2,30.46,NNE,15,7.0,17.0,68,0.00,,SKC,0.00,VWS V13.00,2013-04-22 01:15:00,
2013-04-21 21:20:00,50.1,40.0,30.46,North,5,6.0,15.0,68,0.00,,SKC,0.00,VWS V13.00,2013-04-22 01:20:00,
2013-04-21 21:25:00,50.1,40.0,30.46,North,355,7.0,16.0,68,0.00,,SKC,0.00,VWS V13.00,2013-04-22 01:25:00,
2013-04-21 21:30:00,49.9,39.8,30.46,NE,42,7.0,14.0,68,0.00,,SKC,0.00,VWS V13.00,2013-04-22 01:30:00,
2013-04-21 21:35:00,49.9,40.2,30.46,NNE,17,5.0,12.0,69,0.00,,SKC,0.00,VWS V13.00,2013-04-22 01:35:00,
2013-04-21 21:40:00,49.7,39.6,30.46,NE,42,5.0,11.0,68,0.00,,SKC,0.00,VWS V13.00,2013-04-22 01:40:00,
2013-04-21 21:45:00,49.5,39.8,30.46,NNW,339,11.0,14.0,69,0.00,,SKC,0.00,VWS V13.00,2013-04-22 01:45:00,
2013-04-21 21:50:00,49.3,39.6,30.46,NNW,338,8.0,15.0,69,0.00,,SKC,0.00,VWS V13.00,2013-04-22 01:50:00,
2013-04-21 21:55:00,49.2,39.5,30.46,ENE,65,4.0,11.0,69,0.00,,SKC,0.00,VWS V13.00,2013-04-22 01:55:00,
2013-04-21 22:00:00,49.1,39.4,30.47,North,9,6.0,12.0,69,0.00,,SKC,0.00,VWS V13.00,2013-04-22 02:00:00,
2013-04-21 22:05:00,48.9,39.2,30.47,North,5,10.0,13.0,69,0.00,,SKC,0.00,VWS V13.00,2013-04-22 02:05:00,
2013-04-21 22:10:00,48.8,39.1,30.47,North,11,9.0,18.0,69,0.00,,SKC,0.00,VWS V13.00,2013-04-22 02:10:00,
2013-04-21 22:15:00,48.6,38.9,30.47,NE,40,3.0,16.0,69,0.00,,SKC,0.00,VWS V13.00,2013-04-22 02:15:00,
2013-04-21 22:20:00,48.5,38.8,30.47,NE,49,4.0,14.0,69,0.00,,SKC,0.00,VWS V13.00,2013-04-22 02:20:00,
2013-04-21 22:25:00,48.4,38.7,30.47,NE,41,5.0,13.0,69,0.00,,SKC,0.00,VWS V13.00,2013-04-22 02:25:00,
2013-04-21 22:30:00,48.3,38.6,30.46,North,9,12.0,14.0,69,0.00,,SKC,0.00,VWS V13.00,2013-04-22 02:30:00,
2013-04-21 22:35:00,48.2,38.5,30.46,North,5,6.0,11.0,69,0.00,,SKC,0.00,VWS V13.00,2013-04-22 02:35:00,
2013-04-21 22:40:00,48.1,38.4,30.45,NNE,20,6.0,15.0,69,0.00,,SKC,0.00,VWS V13.00,2013-04-22 02:40:00,
2013-04-21 22:45:00,48.0,38.3,30.45,North,10,7.0,13.0,69,0.00,,SKC,0.00,VWS V13.00,2013-04-22 02:45:00,
2013-04-21 22:50:00,47.9,38.2,30.45,North,360,8.0,12.0,69,0.00,,SKC,0.00,VWS V13.00,2013-04-22 02:50:00,
2013-04-21 22:55:00,47.9,38.2,30.45,NNW,344,4.0,11.0,69,0.00,,SKC,0.00,VWS V13.00,2013-04-22 02:55:00,
2013-04-21 23:00:00,47.8,38.1,30.45,NNE,31,9.0,10.0,69,0.00,,SKC,0.00,VWS V13.00,2013-04-22 03:00:00,
2013-04-21 23:05:00,47.7,38.0,30.44,North,355,5.0,12.0,69,0.00,,SKC,0.00,VWS V13.00,2013-04-22 03:05:00,
2013-04-21 23:10:00,47.7,38.4,30.44,North,360,7.0,9.0,70,0.00,,SKC,0.00,VWS V13.00,2013-04-22 03:10:00,
2013-04-21 23:15:00,47.6,38.3,30.44,North,355,13.0,13.0,70,0.00,,SKC,0.00,VWS V13.00,2013-04-22 03:15:00,
2013-04-21 23:20:00,47.6,38.3,30.44,NNE,13,4.0,10.0,70,0.00,,SKC,0.00,VWS V13.00,2013-04-22 03:20:00,
2013-04-21 23:25:00,47.6,38.3,30.44,NNE,31,3.0,9.0,70,0.00,,SKC,0.00,VWS V13.00,2013-04-22 03:25:00,
2013-04-21 23:30:00,47.6,38.3,30.44,NNE,31,7.0,8.0,70,0.00,,SKC,0.00,VWS V13.00,2013-04-22 03:30:00,
2013-04-21 23:35:00,47.6,38.3,30.44,North,5,7.0,12.0,70,0.00,,SKC,0.00,VWS V13.00,2013-04-22 03:35:00,
2013-04-21 23:40:00,47.6,38.3,30.44,NNE,24,8.0,12.0,70,0.00,,SKC,0.00,VWS V13.00,2013-04-22 03:40:00,
2013-04-21 23:45:00,47.6,38.3,30.44,NNE,12,6.0,10.0,70,0.00,,SKC,0.00,VWS V13.00,2013-04-22 03:45:00,
2013-04-21 23:50:00,47.6,38.3,30.44,North,5,7.0,11.0,70,0.00,,SKC,0.00,VWS V13.00,2013-04-22 03:50:00,
2013-04-21 23:55:00,47.6,38.3,30.43,North,5,7.0,10.0,70,0.00,,SKC,0.00,VWS V13.00,2013-04-22 03:55:00,